createdAt,value
2022-10-21T03:16:39.512Z,46.97
2022-10-21T03:19:07.709Z,50.40
2022-10-21T03:21:36.040Z,44.90
2022-10-21T03:24:10.898Z,49.67
2022-10-21T03:26:48.084Z,44.27
2022-10-21T03:29:16.447Z,41.37
2022-10-21T03:31:46.141Z,44.30
2022-10-21T03:34:14.432Z,43.00
2022-10-21T03:36:42.615Z,46.90
2022-10-21T03:39:12.068Z,44.13
2022-10-21T03:41:40.842Z,43.03
2022-10-21T03:44:09.221Z,43.50
2022-10-21T03:46:37.553Z,39.83
2022-10-21T03:49:11.982Z,38.13
2022-10-21T03:51:44.018Z,41.03
2022-10-21T03:54:12.207Z,46.67
2022-10-21T03:56:40.536Z,42.07
2022-10-21T03:59:08.847Z,43.10
2022-10-21T04:01:37.384Z,41.00
2022-10-21T04:04:07.227Z,42.00
2022-10-21T04:06:35.586Z,39.57
2022-10-21T04:09:04.132Z,41.80
2022-10-21T04:11:32.474Z,38.90
2022-10-21T04:14:00.662Z,44.43
2022-10-21T04:16:28.932Z,39.57
2022-10-21T04:18:57.224Z,39.60
2022-10-21T04:21:27.071Z,43.77
2022-10-21T04:23:55.276Z,38.17
2022-10-21T04:26:23.757Z,43.37
2022-10-21T04:28:51.975Z,39.23
2022-10-21T04:31:20.228Z,40.53
2022-10-21T04:33:48.642Z,38.23
2022-10-21T04:36:16.858Z,39.60
2022-10-21T04:38:46.602Z,52.00
2022-10-21T04:41:14.811Z,45.80
2022-10-21T04:43:43.074Z,45.77
2022-10-21T04:46:14.172Z,47.83
2022-10-21T04:48:42.437Z,42.47
2022-10-21T04:51:10.726Z,40.07
2022-10-21T04:53:39.146Z,46.87
2022-10-21T04:56:09.268Z,39.70
2022-10-21T04:58:37.578Z,46.97
2022-10-21T05:01:06.130Z,44.60
2022-10-21T05:03:34.428Z,44.93
2022-10-21T05:06:02.734Z,43.43
2022-10-21T05:08:31.025Z,46.73
2022-10-21T05:11:00.586Z,43.60
2022-10-21T05:13:30.785Z,47.87
2022-10-21T05:16:00.637Z,40.40
2022-10-21T05:18:29.299Z,42.47
2022-10-21T05:20:58.356Z,42.10
2022-10-21T05:23:27.716Z,40.93
2022-10-21T05:25:56.332Z,44.53
2022-10-21T05:28:24.748Z,38.50
2022-10-21T05:30:55.372Z,39.13
2022-10-21T05:33:23.724Z,40.00
2022-10-21T05:36:01.025Z,37.03
2022-10-21T05:38:29.678Z,40.47
2022-10-21T05:40:58.467Z,39.57
2022-10-21T05:43:28.003Z,44.07
2022-10-21T05:45:58.077Z,47.13
2022-10-21T05:48:27.202Z,45.37
2022-10-21T05:50:56.595Z,41.57
2022-10-21T05:53:25.637Z,44.53
2022-10-21T05:55:57.923Z,50.40
2022-10-21T05:58:26.590Z,42.27
2022-10-21T06:00:55.772Z,44.43
2022-10-21T06:03:29.934Z,38.07
2022-10-21T06:05:58.391Z,38.37
2022-10-21T06:08:26.970Z,39.10
2022-10-21T06:11:02.338Z,41.77
2022-10-21T06:13:30.831Z,37.17
2022-10-21T06:15:59.379Z,35.93
2022-10-21T06:18:29.675Z,36.70
2022-10-21T06:20:58.068Z,34.37
2022-10-21T06:23:26.432Z,32.93
2022-10-21T06:26:02.728Z,31.60
2022-10-21T06:28:32.496Z,33.77
2022-10-21T06:31:01.017Z,32.03
2022-10-21T06:33:31.568Z,32.03
2022-10-21T06:36:00.069Z,27.53
2022-10-21T06:38:29.220Z,30.10
2022-10-21T06:41:09.130Z,25.50
2022-10-21T06:43:40.766Z,31.90
2022-10-21T06:46:10.586Z,24.23
2022-10-21T06:48:41.156Z,27.27
2022-10-21T06:51:11.790Z,24.93
2022-10-21T06:53:40.396Z,27.63
2022-10-21T06:56:10.437Z,21.90
2022-10-21T06:58:43.310Z,22.10
2022-10-21T07:01:27.413Z,21.17
2022-10-21T07:04:04.646Z,23.47
2022-10-21T07:09:07.854Z,20.20
2022-10-21T07:11:36.696Z,20.25
2022-10-21T07:14:05.760Z,23.90
2022-10-21T07:16:35.857Z,18.20
2022-10-21T07:19:06.455Z,17.45
2022-10-21T07:21:35.007Z,18.38
2022-10-21T07:24:03.284Z,17.67
2022-10-21T07:26:34.504Z,16.98
2022-10-21T07:29:03.354Z,16.17
2022-10-21T07:31:34.831Z,20.08
2022-10-21T07:34:06.866Z,17.98
2022-10-21T07:36:38.528Z,18.02
2022-10-21T07:39:10.525Z,17.83
2022-10-21T07:41:41.607Z,17.33
2022-10-21T07:44:10.706Z,17.92
2022-10-21T07:46:40.107Z,14.98
2022-10-21T07:49:10.665Z,17.02
2022-10-21T07:51:40.331Z,17.17
2022-10-21T07:54:09.378Z,16.13
2022-10-21T07:56:41.283Z,16.45
2022-10-21T07:59:13.053Z,14.20
2022-10-21T08:01:44.770Z,14.40
2022-10-21T08:04:16.774Z,16.02
2022-10-21T08:06:47.647Z,14.63
2022-10-21T08:09:16.681Z,13.95
2022-10-21T08:11:45.042Z,14.93
2022-10-21T08:14:13.533Z,18.27
2022-10-21T08:16:42.666Z,12.95
2022-10-21T08:19:16.313Z,17.55
2022-10-21T08:21:46.018Z,13.13
2022-10-21T08:24:14.348Z,11.07
2022-10-21T08:26:42.652Z,18.45
2022-10-21T08:29:10.991Z,13.60
2022-10-21T08:31:40.521Z,11.50
2022-10-21T08:34:08.764Z,13.35
2022-10-21T08:36:38.738Z,13.60
2022-10-21T08:39:08.813Z,15.00
2022-10-21T08:42:00.194Z,11.43
2022-10-21T08:44:35.230Z,11.95
2022-10-21T08:47:11.725Z,13.25
2022-10-21T08:49:53.327Z,14.82
2022-10-21T08:52:26.360Z,13.10
2022-10-21T08:54:59.659Z,10.18
2022-10-21T08:57:28.707Z,10.07
2022-10-21T08:59:57.201Z,16.15
2022-10-21T09:02:36.445Z,9.77
2022-10-21T09:05:22.107Z,10.00
2022-10-21T09:08:01.901Z,11.07
2022-10-21T09:10:47.638Z,10.45
2022-10-21T09:13:22.074Z,11.43
2022-10-21T09:16:01.838Z,13.73
2022-10-21T09:18:43.025Z,9.90
2022-10-21T09:21:20.264Z,10.23
2022-10-21T09:23:56.264Z,9.32
2022-10-21T09:26:44.078Z,11.55
2022-10-21T09:29:32.311Z,9.82
2022-10-21T09:32:12.164Z,11.32
2022-10-21T09:34:56.122Z,11.32
2022-10-21T09:37:31.811Z,9.48
2022-10-21T09:40:13.325Z,9.48
2022-10-21T09:42:47.402Z,7.97
2022-10-21T09:45:26.042Z,10.90
2022-10-21T09:47:59.288Z,9.95
2022-10-21T09:50:29.363Z,10.27
2022-10-21T09:53:05.654Z,10.25
2022-10-21T09:55:34.562Z,9.23
2022-10-21T09:58:05.353Z,7.88
2022-10-21T10:00:43.983Z,7.93
2022-10-21T10:03:12.415Z,7.75
2022-10-21T10:05:44.492Z,9.05
2022-10-21T10:08:35.641Z,6.47
2022-10-21T10:11:12.098Z,7.97
2022-10-21T10:13:44.124Z,8.38
2022-10-21T10:16:28.116Z,12.32
2022-10-21T10:19:15.670Z,8.75
2022-10-21T10:21:44.526Z,7.35
2022-10-21T10:24:18.763Z,7.95
2022-10-21T10:26:47.908Z,6.28
2022-10-21T10:29:27.066Z,11.40
2022-10-21T10:31:57.503Z,9.20
2022-10-21T10:34:30.815Z,8.63
2022-10-21T10:37:05.594Z,6.95
2022-10-21T10:39:36.820Z,11.18
2022-10-21T10:42:05.769Z,7.57
2022-10-21T10:44:39.553Z,10.05
2022-10-21T10:47:18.930Z,6.88
2022-10-21T10:49:47.990Z,7.20
2022-10-21T10:52:21.527Z,9.18
2022-10-21T10:55:10.473Z,9.02
2022-10-21T10:57:45.864Z,6.72
2022-10-21T11:00:24.489Z,9.82
2022-10-21T11:03:01.613Z,6.47
2022-10-21T11:05:36.397Z,8.80
2022-10-21T11:08:15.519Z,8.27
2022-10-21T11:10:46.535Z,9.35
2022-10-21T11:13:17.801Z,6.03
2022-10-21T11:16:06.796Z,5.95
2022-10-21T11:18:38.743Z,6.75
2022-10-21T11:21:14.234Z,7.38
2022-10-21T11:24:16.734Z,6.28
2022-10-21T11:26:54.203Z,7.15
2022-10-21T11:29:36.829Z,6.38
2022-10-21T11:32:15.635Z,6.95
2022-10-21T11:35:02.982Z,6.97
2022-10-21T11:37:45.864Z,6.35
2022-10-21T11:40:24.163Z,9.60
2022-10-21T11:42:54.033Z,9.57
2022-10-21T11:45:47.592Z,9.38
2022-10-21T11:48:26.606Z,8.48
2022-10-21T11:51:05.243Z,9.38
2022-10-21T11:53:49.031Z,7.85
2022-10-21T11:56:24.436Z,8.30
2022-10-21T11:59:08.811Z,9.18
2022-10-21T12:01:46.867Z,7.53
2022-10-21T12:04:34.509Z,8.60
2022-10-21T12:07:15.794Z,11.55
2022-10-21T12:09:52.053Z,12.30
2022-10-21T12:12:24.827Z,9.10
2022-10-21T12:14:57.744Z,9.13
2022-10-21T12:17:27.382Z,10.18
2022-10-21T12:20:00.477Z,8.55
2022-10-21T12:22:33.160Z,10.73
2022-10-21T12:25:10.313Z,8.88
2022-10-21T12:27:46.000Z,13.20
2022-10-21T12:30:23.466Z,14.07
2022-10-21T12:33:13.518Z,12.40
2022-10-21T12:35:53.228Z,12.85
2022-10-21T12:38:25.425Z,8.50
2022-10-21T12:41:27.633Z,10.77
2022-10-21T12:44:14.259Z,8.02
2022-10-21T12:46:45.397Z,8.50
2022-10-21T12:49:32.924Z,12.43
2022-10-21T12:52:10.192Z,12.45
2022-10-21T12:54:52.420Z,11.77
2022-10-21T12:57:28.649Z,12.50
2022-10-21T13:00:32.516Z,10.98
2022-10-21T13:03:03.312Z,11.70
2022-10-21T13:06:04.089Z,13.60
2022-10-21T13:08:41.702Z,11.00
2022-10-21T13:11:40.089Z,13.95
2022-10-21T13:14:36.327Z,11.32
2022-10-21T13:17:29.584Z,9.98
2022-10-21T13:20:18.722Z,9.90
2022-10-21T13:22:48.121Z,13.07
2022-10-21T13:25:23.168Z,13.02
2022-10-21T13:27:54.180Z,11.02
2022-10-21T13:30:30.805Z,12.02
2022-10-21T13:33:03.467Z,16.23
2022-10-21T13:35:34.551Z,10.32
2022-10-21T13:38:06.382Z,12.80
2022-10-21T13:40:47.642Z,13.48
2022-10-21T13:43:19.693Z,14.02
2022-10-21T13:45:50.575Z,11.60
2022-10-21T13:48:20.887Z,12.88
2022-10-21T13:50:51.079Z,10.80
2022-10-21T13:53:30.052Z,11.05
2022-10-21T13:56:01.898Z,9.48
2022-10-21T13:58:36.149Z,12.00
2022-10-21T14:01:14.035Z,13.57
2022-10-21T14:03:44.038Z,12.75
2022-10-21T14:06:18.269Z,13.75
2022-10-21T14:08:48.543Z,12.95
2022-10-21T14:11:22.019Z,15.40
2022-10-21T14:13:52.572Z,12.07
2022-10-21T14:16:23.948Z,13.70
2022-10-21T14:18:54.382Z,10.48
2022-10-21T14:21:26.460Z,12.02
2022-10-21T14:23:55.608Z,9.88
2022-10-21T14:26:30.544Z,8.02
2022-10-21T14:29:00.923Z,13.38
2022-10-21T14:31:30.100Z,9.70
2022-10-21T14:33:58.457Z,15.65
2022-10-21T14:36:28.758Z,14.70
2022-10-21T14:39:00.613Z,11.90
2022-10-21T14:41:35.629Z,12.73
2022-10-21T14:44:09.267Z,11.68
2022-10-21T14:46:45.557Z,10.95
2022-10-21T14:49:24.458Z,11.90
2022-10-21T14:51:59.873Z,10.70
2022-10-21T14:54:35.839Z,12.65
2022-10-21T14:57:05.738Z,11.77
2022-10-21T14:59:40.008Z,12.20
2022-10-21T15:02:18.766Z,14.65
2022-10-21T15:04:53.641Z,14.13
2022-10-21T15:07:30.067Z,26.92
2022-10-21T15:10:16.258Z,40.58
2022-10-21T15:12:47.248Z,33.40
2022-10-21T15:15:46.138Z,39.38
2022-10-21T15:18:20.091Z,28.17
2022-10-21T15:20:57.768Z,30.50
2022-10-21T15:23:29.062Z,20.38
2022-10-21T15:26:00.873Z,20.35
2022-10-21T15:28:33.557Z,19.30
2022-10-21T15:31:03.072Z,13.75
2022-10-21T15:33:31.581Z,15.13
2022-10-21T15:36:04.807Z,19.98
2022-10-21T15:38:33.125Z,14.35
2022-10-21T15:41:01.463Z,15.63
2022-10-21T15:43:31.167Z,10.05
2022-10-21T15:45:59.548Z,25.02
2022-10-21T15:48:28.210Z,12.48
2022-10-21T15:50:57.900Z,11.23
2022-10-21T15:53:26.315Z,11.35
2022-10-21T15:55:55.514Z,17.73
2022-10-21T15:58:23.813Z,12.35
2022-10-21T16:00:53.592Z,10.30
2022-10-21T16:03:22.938Z,9.95
2022-10-21T16:05:51.559Z,12.07
2022-10-21T16:08:19.896Z,10.15
2022-10-21T16:10:50.060Z,13.48
2022-10-21T16:13:20.500Z,14.68
2022-10-21T16:15:53.720Z,10.88
2022-10-21T16:18:22.108Z,15.48
2022-10-21T16:20:50.358Z,12.13
2022-10-21T16:23:18.634Z,11.15
2022-10-21T16:25:46.911Z,7.68
2022-10-21T16:28:15.212Z,14.63
2022-10-21T16:30:43.416Z,15.20
2022-10-21T16:33:13.196Z,10.63
2022-10-21T16:35:41.530Z,11.77
2022-10-21T16:38:11.200Z,11.05
2022-10-21T16:40:39.602Z,15.57
2022-10-21T16:43:07.875Z,14.15
2022-10-21T16:45:36.330Z,13.82
2022-10-21T16:48:06.018Z,15.43
2022-10-21T16:50:40.598Z,12.20
2022-10-21T16:53:12.996Z,13.70
2022-10-21T16:55:41.399Z,14.85
2022-10-21T16:58:09.885Z,13.00
2022-10-21T17:00:38.281Z,18.13
2022-10-21T17:03:06.577Z,12.27
2022-10-21T17:05:36.237Z,13.65
2022-10-21T17:08:04.723Z,15.88
2022-10-21T17:10:33.022Z,13.95
2022-10-21T17:13:01.745Z,14.15
2022-10-21T17:15:30.207Z,16.55
2022-10-21T17:17:59.289Z,14.45
2022-10-21T17:20:30.479Z,14.15
2022-10-21T17:23:00.788Z,13.45
2022-10-21T17:25:29.982Z,16.90
2022-10-21T17:27:58.965Z,18.17
2022-10-21T17:30:27.401Z,16.70
2022-10-21T17:32:55.751Z,13.20
2022-10-21T17:35:24.279Z,15.68
2022-10-21T17:37:53.710Z,15.20
2022-10-21T17:40:26.392Z,11.95
2022-10-21T17:42:55.351Z,13.70
2022-10-21T17:45:23.981Z,12.48
2022-10-21T17:47:53.093Z,13.77
2022-10-21T17:50:25.500Z,12.32
2022-10-21T17:52:55.531Z,16.45
2022-10-21T17:55:26.124Z,13.05
2022-10-21T17:57:54.604Z,12.93
2022-10-21T18:00:22.980Z,14.73
2022-10-21T18:02:51.291Z,12.57
2022-10-21T18:05:20.163Z,22.25
2022-10-21T18:07:48.556Z,16.15
2022-10-21T18:10:16.867Z,13.90
2022-10-21T18:12:46.510Z,15.57
2022-10-21T18:15:15.119Z,16.48
2022-10-21T18:17:43.619Z,18.70
2022-10-21T18:20:12.877Z,18.80
2022-10-21T18:22:41.590Z,13.23
2022-10-21T18:25:10.869Z,12.85
2022-10-21T18:27:40.249Z,14.02
2022-10-21T18:30:11.605Z,14.45
2022-10-21T18:32:40.267Z,13.07
2022-10-21T18:35:09.864Z,17.30
2022-10-21T18:37:38.478Z,15.40
2022-10-21T18:40:08.330Z,14.55
2022-10-21T18:42:36.679Z,22.80
2022-10-21T18:45:05.808Z,14.45
2022-10-21T18:47:35.656Z,16.15
2022-10-21T18:50:04.461Z,16.52
2022-10-21T18:52:32.751Z,21.52
2022-10-21T18:55:01.238Z,18.80
2022-10-21T18:57:29.529Z,19.02
2022-10-21T18:59:57.882Z,19.83
2022-10-21T19:02:26.286Z,20.10
2022-10-21T19:04:59.616Z,17.90
2022-10-21T19:07:29.805Z,20.70
2022-10-21T19:09:58.083Z,22.73
2022-10-21T19:12:26.493Z,20.58
2022-10-21T19:14:54.758Z,23.25
2022-10-21T19:17:23.625Z,19.60
2022-10-21T19:19:51.976Z,24.52
2022-10-21T19:22:23.582Z,23.40
2022-10-21T19:24:51.961Z,24.23
2022-10-21T19:27:20.580Z,31.35
2022-10-21T19:29:49.311Z,27.95
2022-10-21T19:32:17.648Z,32.45
2022-10-21T19:34:45.966Z,30.85
2022-10-21T19:37:14.382Z,31.23
2022-10-21T19:39:43.986Z,28.88
2022-10-21T19:42:12.350Z,28.52
2022-10-21T19:44:40.695Z,27.85
2022-10-21T19:47:09.064Z,32.90
2022-10-21T19:49:37.563Z,32.72
2022-10-21T19:52:06.401Z,28.85
2022-10-21T19:54:34.900Z,39.83
2022-10-21T19:57:04.812Z,33.85
2022-10-21T19:59:33.402Z,34.05
2022-10-21T20:02:01.608Z,56.60
2022-10-21T20:04:32.545Z,46.95
2022-10-21T20:07:03.583Z,57.03
2022-10-21T20:09:33.887Z,45.85
2022-10-21T20:12:06.245Z,41.63
2022-10-21T20:14:34.702Z,35.00
2022-10-21T20:17:02.990Z,35.15
2022-10-21T20:19:31.336Z,27.17
2022-10-21T20:21:59.579Z,28.20
2022-10-21T20:24:28.251Z,32.60
2022-10-21T20:26:59.703Z,27.95
2022-10-21T20:29:31.853Z,29.42
2022-10-21T20:32:00.211Z,32.95
2022-10-21T20:34:28.502Z,29.92
2022-10-21T20:36:56.792Z,30.67
2022-10-21T20:39:25.052Z,31.98
2022-10-21T20:41:53.374Z,28.80
2022-10-21T20:44:21.669Z,26.83
2022-10-21T20:46:51.651Z,25.70
2022-10-21T20:49:20.092Z,28.70
2022-10-21T20:51:48.409Z,29.10
2022-10-21T20:54:19.030Z,26.75
2022-10-21T20:56:47.356Z,28.55
2022-10-21T20:59:18.547Z,25.17
2022-10-21T21:01:48.410Z,27.05
2022-10-21T21:04:20.822Z,24.95
2022-10-21T21:06:50.283Z,24.05
2022-10-21T21:12:09.141Z,26.30
2022-10-21T21:14:37.467Z,21.27
2022-10-21T21:17:05.881Z,22.52
2022-10-21T21:19:35.608Z,25.30
2022-10-21T21:22:05.105Z,24.67
2022-10-21T21:24:33.480Z,24.42
2022-10-21T21:27:01.808Z,34.03
2022-10-21T21:29:30.102Z,27.48
2022-10-21T21:31:58.347Z,29.13
2022-10-21T21:34:26.697Z,44.58
2022-10-21T21:36:56.373Z,42.55
2022-10-21T21:39:24.796Z,44.33
2022-10-21T21:41:53.190Z,36.25
2022-10-21T21:44:21.414Z,37.17
2022-10-21T21:46:49.778Z,39.55
2022-10-21T21:49:17.992Z,38.83
2022-10-21T21:51:46.380Z,39.80
2022-10-21T21:54:16.080Z,31.02
2022-10-21T21:56:44.514Z,47.70
2022-10-21T21:59:12.814Z,39.50
2022-10-21T22:01:41.126Z,32.78
2022-10-21T22:04:09.530Z,39.10
2022-10-21T22:06:38.962Z,39.90
2022-10-21T22:09:11.791Z,29.73
2022-10-21T22:11:41.638Z,28.67
2022-10-21T22:14:09.840Z,28.67
2022-10-21T22:16:38.398Z,33.15
2022-10-21T22:19:06.865Z,33.90
2022-10-21T22:21:35.141Z,33.65
2022-10-21T22:24:03.375Z,29.63
2022-10-21T22:26:31.666Z,30.25
2022-10-21T22:29:01.349Z,32.55
2022-10-21T22:31:31.006Z,27.50
2022-10-21T22:34:00.924Z,28.50
2022-10-21T22:36:29.461Z,31.85
2022-10-21T22:38:57.716Z,31.25
2022-10-21T22:41:26.294Z,28.08
2022-10-21T22:43:54.533Z,32.15
2022-10-21T22:46:39.919Z,32.65
2022-10-21T22:49:08.365Z,30.95
2022-10-21T22:51:36.695Z,31.90
2022-10-21T22:54:15.168Z,35.88
2022-10-21T22:56:47.778Z,33.13
2022-10-21T22:59:15.993Z,30.17
2022-10-21T23:01:45.705Z,31.98
2022-10-21T23:04:13.984Z,30.08
2022-10-21T23:06:42.213Z,30.27
2022-10-21T23:09:10.535Z,34.63
